CheckWX is a tool to help pilots better visualize weather data.  It is not intended as a substitute for an official pre-flight weather briefing.

17:39:38 UTC

KOPL METAR
St Landry Parish-Ahart Field Airport
Opelousas, Louisiana, USA
Current

25 mins ago

KOPL 181715Z AUTO 00000KT 10SM SCT036 SCT046 32/24 A2998 RMK AO2 T03160244
Observed
Aug-18 @ 17:15 UTC
Visibility
10 SM
Flight Rules
VFR
Cloud Levels
  • Scattered at 3,600' AGL
  • Scattered at 4,600' AGL
Temperature
32°C / 90°F
Dewpoint
24°C / 75°F
Heat Index
38°C / 101°F
Humidity
63%
Altimeter
29.98" Hg
Pressure
1015.22 hPa
Previous

45 mins ago

KOPL 181655Z AUTO 24004KT 10SM SCT036 SCT043 SCT049 32/25 A2999 RMK AO2 T03180245
Observed
Aug-18 @ 16:55 UTC
Wind
  • 240° at 4 KTS
Visibility
10 SM
Flight Rules
VFR
Cloud Levels
  • Scattered at 3,600' AGL
  • Scattered at 4,300' AGL
  • Scattered at 4,900' AGL
Temperature
32°C / 90°F
Dewpoint
25°C / 77°F
Heat Index
40°C / 104°F
Humidity
67%
Altimeter
29.99" Hg
Pressure
1015.62 hPa
Previous

1 hour ago

KOPL 181635Z AUTO 22003KT 10SM CLR 31/24 A2998 RMK AO2 LTG DSNT S T03120243
Observed
Aug-18 @ 16:35 UTC
Wind
  • 220° at 3 KTS
Visibility
10 SM
Flight Rules
VFR
Cloud Levels
  • Clear skies
Temperature
31°C / 88°F
Dewpoint
24°C / 75°F
Heat Index
37°C / 98°F
Humidity
66%
Altimeter
29.98" Hg
Pressure
1015.22 hPa